ADDS METAR Data INFO
IDs: Format: Raw Decoded Include TAF

Data at: 0259 UTC 21 Jan 2018

KAEG 210247Z 20010KT 10SM BKN095 BKN150 09/M06 A2978
KAEG 210147Z 20012G19KT 10SM OVC110 12/M06 A2979
KAEG 210047Z 13006KT 10SM BKN095 BKN150 09/M09 A2980
KAEG 202347Z 15005KT 10SM BKN095 BKN150 13/M08 A2982
KAEG 202248Z 15008KT 10SM BKN170 13/M08 A2983
KAEG 202148Z 14009KT 10SM BKN170 13/M08 A2984
KAEG 202048Z 14009KT 10SM BKN170 12/M08 A2986
KAEG 201947Z 15010KT 10SM SCT170 11/M09 A2991
KAEG 201846Z VRB05KT 10SM SCT170 09/M09 A2996
KAEG 201747Z VRB05KT 10SM SCT170 08/M09 A2999
KAEG 201647Z 12003KT 10SM SCT170 07/M09 A3000
KAEG 201547Z 05004KT 10SM FEW170 03/M11 A3000
KAEG 201448Z 32004KT 10SM FEW170 M05/M13 A3000
KAEG 201347Z 00000KT 10SM SKC M07/M14 A2999
KAEG 201247Z 00000KT 10SM SKC M07/M13 A2999
KAEG 200448Z 00000KT 10SM SKC M02/M13 A3002
KAEG 200348Z 23005KT 10SM SKC M01/M13 A3001
KAEG 200248Z 00000KT 10SM SKC 01/M12 A3002
KAEG 200147Z 21006KT 10SM FEW170 02/M12 A3001
KAEG 200049Z 18009KT 10SM FEW170 04/M12 A3000
KAEG 192350Z 16006KT 10SM BKN170 11/M10 A3000
KAEG 192248Z 13007KT 10SM BKN170 12/M09 A3001
KAEG 192147Z 14009KT 10SM BKN170 12/M09 A3002
KAEG 192047Z 15004KT 10SM BKN170 11/M09 A3004
KAEG 191947Z 15006KT 10SM BKN180 11/M09 A3006
KAEG 191847Z VRB06KT 10SM BKN180 09/M09 A3012
KAEG 191755Z 22006KT 10SM BKN180 08/M09 A3015
KAEG 191648Z 16003KT 10SM BKN160 05/M09 A3016
KAEG 191550Z 19003KT 10SM BKN160 01/M10 A3016